ADDS METAR Data INFO
IDs: Format: Raw Decoded Include TAF

Data at: 1835 UTC 16 Dec 2017

KEKM 161748Z 22008KT 10SM CLR 04/M04 A2993
KEKM 161648Z 22007KT 10SM CLR 03/M04 A2994
KEKM 161548Z 23007KT 10SM CLR 02/M04 A2994
KEKM 161448Z 23007KT 10SM CLR 02/M04 A2992
KEKM 161348Z 22007KT 10SM SCT085 01/M04 A2990
KEKM 161248Z 21006KT 10SM CLR 01/M04 A2990
KEKM 160152Z 25008KT 10SM OVC034 M01/M06 A2993 RMK AO2 LAST
KEKM 152352Z 25008KT 10SM OVC034 M01/M07 A2991 RMK AO2
KEKM 152252Z 25008KT 10SM BKN028 M01/M07 A2991 RMK AO2
KEKM 152152Z 24010KT 10SM OVC038 M02/M08 A2988 RMK AO2
KEKM 152052Z 27015KT 10SM BKN040 M02/M09 A2990 RMK AO2
KEKM 151952Z 27015G25KT 10SM BKN038 M02/M09 A2988 RMK AO2
KEKM 151852Z 28010KT 10SM BKN036 M03/M09 A2988 RMK AO2
KEKM 151750Z 29013G22KT 7SM BKN038 BKN044 M02/M08 A2988 RMK AO2
KEKM 151650Z 24010KT 7SM -SN SCT009 BKN040 M04/M07 A2988 RMK AO2
KEKM 151559Z 24010G15KT 1 3/4SM -SN SCT007 OVC012 M04/M07 A2990 RMK AO2
KEKM 151450Z 24012KT 3SM -SN BKN008 OVC012 M05/M08 A2989 RMK AO2
KEKM 151350Z 24008KT 10SM -SN SCT015 BKN024 M05/M09 A2990 RMK AO2
KEKM 151250Z 23006KT 10SM BKN026 M06/M11 A2991 RMK AO2
KEKM 151150Z 21007KT 10SM OVC026 M06/M11 A2991 RMK AO2